Time;durP1;ratioP1;P1;durP2;ratioP2;P2;SDS_P1;SDS_P2;PMS_P1;PMS_P2;Temp;Humidity;BMP_temperature;BMP_pressure;BME280_temperature;BME280_humidity;BME280_pressure;Samples;Min_cycle;Max_cycle;Signal;HPM_P1;HPM_P2
2021/06/30 00:02:09;;;;;;;28.60;5.05;;;;;;;;;;5055701;28;20021;-71
2021/06/30 00:04:35;;;;;;;32.53;5.75;;;;;;;;;;5055222;28;20071;-71
2021/06/30 00:07:01;;;;;;;29.20;5.85;;;;;;;;;;5055182;28;20473;-71
2021/06/30 00:09:27;;;;;;;28.63;5.97;;;;;;;;;;5054917;28;20477;-71
2021/06/30 00:11:53;;;;;;;32.28;7.22;;;;;;;;;;5055093;28;20434;-71
2021/06/30 00:14:19;;;;;;;25.80;6.18;;;;;;;;;;5055087;28;20479;-71
2021/06/30 00:16:46;;;;;;;31.50;6.47;;;;;;;;;;5055119;28;20104;-71
2021/06/30 00:19:13;;;;;;;26.63;5.60;;;;;;;;;;5055372;28;20031;-71
2021/06/30 00:21:39;;;;;;;27.80;5.78;;;;;;;;;;5054830;28;20100;-70
2021/06/30 00:24:06;;;;;;;30.02;6.45;;;;;;;;;;5054643;28;20025;-71
2021/06/30 00:26:33;;;;;;;31.83;5.68;;;;;;;;;;5054812;28;20029;-71
2021/06/30 00:28:59;;;;;;;31.48;6.05;;;;;;;;;;5054738;28;20033;-71
2021/06/30 00:31:25;;;;;;;32.20;5.95;;;;;;;;;;5054801;28;20401;-71
2021/06/30 00:33:51;;;;;;;34.42;5.57;;;;;;;;;;5054668;28;20021;-71
2021/06/30 00:36:17;;;;;;;29.65;5.97;;;;;;;;;;5054717;28;20485;-71
2021/06/30 00:38:43;;;;;;;32.60;6.05;;;;;;;;;;5054805;28;20095;-71
2021/06/30 00:41:09;;;;;;;26.70;6.70;;;;;;;;;;5054632;28;20025;-71
2021/06/30 00:43:35;;;;;;;23.67;5.30;;;;;;;;;;5054305;28;20048;-71
2021/06/30 00:46:01;;;;;;;31.52;6.35;;;;;;;;;;5054398;28;20100;-71
2021/06/30 00:48:27;;;;;;;29.95;6.05;;;;;;;;;;5054419;28;20053;-71
2021/06/30 00:50:53;;;;;;;25.25;6.13;;;26.30;48.70;;;;;;5054265;28;20044;-71
2021/06/30 00:53:19;;;;;;;28.25;5.82;;;;;;;;;;5054577;28;20035;-71
2021/06/30 00:55:48;;;;;;;32.72;6.55;;;;;;;;;;5054492;28;20060;-71
2021/06/30 00:58:15;;;;;;;30.40;7.03;;;;;;;;;;5053006;28;20495;-71
2021/06/30 01:00:42;;;;;;;29.52;6.70;;;;;;;;;;5051606;28;20074;-71
2021/06/30 01:03:09;;;;;;;31.17;6.05;;;;;;;;;;5051169;28;20563;-71
2021/06/30 01:05:35;;;;;;;35.20;5.70;;;;;;;;;;5052563;28;20350;-71
2021/06/30 01:08:03;;;;;;;22.75;5.30;;;;;;;;;;5054157;28;20028;-71
2021/06/30 01:10:29;;;;;;;25.17;6.13;;;;;;;;;;5053790;28;20045;-71
2021/06/30 01:12:55;;;;;;;22.85;5.28;;;;;;;;;;5053747;28;20021;-71
2021/06/30 01:15:21;;;;;;;31.45;6.07;;;;;;;;;;5053766;28;20431;-71
2021/06/30 01:17:50;;;;;;;31.75;5.93;;;;;;;;;;5053622;28;20420;-71
2021/06/30 01:20:18;;;;;;;30.42;6.03;;;;;;;;;;5053672;28;20025;-71
2021/06/30 01:22:45;;;;;;;26.30;5.53;;;;;;;;;;5053431;28;20111;-71
2021/06/30 01:25:11;;;;;;;27.25;5.22;;;;;;;;;;5053637;28;20358;-71
2021/06/30 01:27:37;;;;;;;26.80;5.68;;;;;;;;;;5053180;28;20059;-71
2021/06/30 01:30:05;;;;;;;37.30;6.10;;;;;;;;;;5053225;28;20037;-71
2021/06/30 01:32:31;;;;;;;33.08;5.85;;;27.10;66.00;;;;;;5053953;28;20079;-71
2021/06/30 01:34:57;;;;;;;23.95;5.85;;;26.60;65.40;;;;;;5053461;28;20017;-71
2021/06/30 01:37:23;;;;;;;29.08;5.85;;;;;;;;;;5053390;28;20100;-71
2021/06/30 01:39:49;;;;;;;31.08;5.50;;;;;;;;;;5053579;28;20021;-71
2021/06/30 01:42:15;;;;;;;22.15;5.28;;;;;;;;;;5053486;28;20021;-71
2021/06/30 01:44:41;;;;;;;22.52;5.00;;;;;;;;;;5053164;28;20052;-70
2021/06/30 01:47:07;;;;;;;22.08;5.25;;;;;;;;;;5053574;28;20025;-71
2021/06/30 01:49:33;;;;;;;25.40;6.03;;;;;;;;;;5052966;28;20033;-71
2021/06/30 01:51:59;;;;;;;24.30;4.88;;;;;;;;;;5053011;28;20021;-71
2021/06/30 01:54:25;;;;;;;21.63;4.97;;;;;;;;;;5053312;28;20028;-71
2021/06/30 01:56:51;;;;;;;24.60;5.15;;;;;;;;;;5053320;28;20595;-71
2021/06/30 01:59:17;;;;;;;20.10;4.78;;;;;;;;;;5052684;28;20370;-71
2021/06/30 02:01:43;;;;;;;23.42;4.90;;;;;;;;;;5053269;28;20028;-71
2021/06/30 02:04:09;;;;;;;22.80;5.13;;;;;;;;;;5053093;28;20036;-71
2021/06/30 02:06:45;;;;;;;21.25;5.97;;;;;;;;;;5053201;28;20398;-71
2021/06/30 02:09:12;;;;;;;24.73;4.93;;;;;;;;;;5053087;28;20025;-71
2021/06/30 02:11:39;;;;;;;27.95;4.88;;;;;;;;;;5053011;28;20037;-71
2021/06/30 02:14:06;;;;;;;16.67;4.65;;;;;;;;;;5052944;28;20074;-71
2021/06/30 02:16:32;;;;;;;24.52;4.40;;;;;;;;;;5052613;28;20028;-71
2021/06/30 02:19:04;;;;;;;22.45;5.18;;;;;;;;;;5053062;28;20021;-71
2021/06/30 02:21:30;;;;;;;29.45;5.22;;;;;;;;;;5052841;28;20116;-71
2021/06/30 02:23:56;;;;;;;27.33;4.63;;;;;;;;;;5052939;28;20021;-71
2021/06/30 02:26:22;;;;;;;23.88;4.60;;;;;;;;;;5052777;28;20057;-71
2021/06/30 02:28:48;;;;;;;23.17;4.72;;;;;;;;;;5052726;28;20465;-71
2021/06/30 02:31:16;;;;;;;20.45;4.65;;;;;;;;;;5052530;28;20439;-71
2021/06/30 02:33:42;;;;;;;30.40;4.93;;;;;;;;;;5052119;28;20017;-71
2021/06/30 02:36:08;;;;;;;33.05;5.88;;;;;;;;;;5052751;28;20078;-71
2021/06/30 02:38:34;;;;;;;23.85;4.75;;;;;;;;;;5052631;28;20056;-71
2021/06/30 02:41:00;;;;;;;19.48;4.40;;;;;;;;;;5052558;28;20051;-71
2021/06/30 02:43:26;;;;;;;26.00;5.22;;;;;;;;;;5052553;28;20056;-71
2021/06/30 02:45:52;;;;;;;19.25;4.55;;;;;;;;;;5052873;28;20032;-71
2021/06/30 02:48:18;;;;;;;24.15;5.00;;;;;;;;;;5052935;28;20033;-71
2021/06/30 02:50:44;;;;;;;23.00;4.40;;;;;;;;;;5052619;28;20045;-71
2021/06/30 02:53:10;;;;;;;22.75;4.57;;;;;;;;;;5052686;28;20071;-71
2021/06/30 02:55:36;;;;;;;27.05;5.25;;;;;;;;;;5052511;28;20111;-70
2021/06/30 02:58:02;;;;;;;22.58;5.32;;;;;;;;;;5052811;28;20029;-71
2021/06/30 03:00:28;;;;;;;28.25;5.88;;;;;;;;;;5052846;28;20025;-71
2021/06/30 03:02:55;;;;;;;25.02;5.07;;;;;;;;;;5052593;28;20021;-71
2021/06/30 03:05:21;;;;;;;25.40;5.80;;;;;;;;;;5052707;28;20448;-71
2021/06/30 03:07:50;;;;;;;21.60;5.18;;;;;;;;;;5052552;28;20021;-71
2021/06/30 03:10:17;;;;;;;19.60;5.40;;;;;;;;;;5052223;28;20044;-71
2021/06/30 03:12:43;;;;;;;28.42;5.93;;;;;;;;;;5052472;28;20017;-71
2021/06/30 03:15:10;;;;;;;20.48;4.97;;;;;;;;;;5052714;28;20473;-70
2021/06/30 03:17:37;;;;;;;27.55;6.32;;;;;;;;;;5052611;28;20071;-71
2021/06/30 03:20:04;;;;;;;18.70;5.40;;;;;;;;;;5052508;28;20462;-71
2021/06/30 03:22:30;;;;;;;19.13;5.35;;;;;;;;;;5052238;28;20029;-71
2021/06/30 03:24:56;;;;;;;28.35;4.93;;;;;;;;;;5052111;28;20036;-71
2021/06/30 03:27:22;;;;;;;24.40;5.13;;;;;;;;;;5051095;28;20099;-71
2021/06/30 03:29:48;;;;;;;31.95;5.05;;;;;;;;;;5054054;28;20040;-71
2021/06/30 03:32:14;;;;;;;23.60;6.07;;;;;;;;;;5056070;28;20381;-71
2021/06/30 03:34:40;;;;;;;28.70;6.97;;;;;;;;;;5056006;28;20029;-71
2021/06/30 03:37:07;;;;;;;22.30;5.35;;;;;;;;;;5056020;28;20135;-71
2021/06/30 03:39:33;;;;;;;22.75;5.70;;;;;;;;;;5055736;28;20028;-71
2021/06/30 03:41:59;;;;;;;26.75;6.18;;;;;;;;;;5055652;28;20018;-71
2021/06/30 03:44:25;;;;;;;26.42;5.40;;;;;;;;;;5055394;28;20552;-71
2021/06/30 03:46:51;;;;;;;23.05;5.78;;;;;;;;;;5055520;28;20024;-71
2021/06/30 03:49:17;;;;;;;29.10;5.90;;;;;;;;;;5055691;28;20083;-71
2021/06/30 03:51:44;;;;;;;25.55;5.57;;;;;;;;;;5055831;28;20029;-71
2021/06/30 03:54:10;;;;;;;25.83;6.05;;;;;;;;;;5055544;28;20017;-71
2021/06/30 03:56:36;;;;;;;20.88;5.65;;;;;;;;;;5055416;28;20067;-71
2021/06/30 03:59:02;;;;;;;25.48;5.50;;;;;;;;;;5055208;28;20427;-71
2021/06/30 04:01:28;;;;;;;27.17;5.75;;;;;;;;;;5055479;28;20025;-71
2021/06/30 04:04:01;;;;;;;23.00;6.13;;;;;;;;;;5055259;28;20113;-71
2021/06/30 04:06:27;;;;;;;21.88;5.53;;;;;;;;;;5055261;28;20562;-70
2021/06/30 04:08:53;;;;;;;20.50;6.25;;;;;;;;;;5055284;28;20028;-71
2021/06/30 04:11:19;;;;;;;21.83;5.05;;;;;;;;;;5054633;28;20405;-70
2021/06/30 04:13:46;;;;;;;26.27;5.45;;;;;;;;;;5054733;28;20481;-70
2021/06/30 04:16:12;;;;;;;22.65;6.07;;;;;;;;;;5054866;28;20054;-70
2021/06/30 04:18:38;;;;;;;30.60;6.32;;;;;;;;;;5054859;28;20501;-70
2021/06/30 04:21:04;;;;;;;26.42;5.70;;;;;;;;;;5054820;28;20123;-70
2021/06/30 04:23:31;;;;;;;22.92;5.05;;;;;;;;;;5055032;28;20052;-70
2021/06/30 04:25:57;;;;;;;25.60;5.70;;;;;;;;;;5055281;28;20083;-70
2021/06/30 04:28:23;;;;;;;29.95;4.60;;;;;;;;;;5054897;28;20424;-71
2021/06/30 04:30:49;;;;;;;20.77;5.40;;;;;;;;;;5054882;28;20033;-70
2021/06/30 04:33:15;;;;;;;19.20;4.93;;;;;;;;;;5054724;28;20075;-70
2021/06/30 04:35:41;;;;;;;18.38;4.90;;;;;;;;;;5054586;28;20036;-70
2021/06/30 04:38:07;;;;;;;20.38;4.80;;;;;;;;;;5054658;28;20028;-70
2021/06/30 04:40:33;;;;;;;26.42;5.15;;;;;;;;;;5054526;28;20029;-69
2021/06/30 04:42:59;;;;;;;16.65;4.45;;;;;;;;;;5054444;28;20025;-69
2021/06/30 04:45:25;;;;;;;20.83;5.45;;;;;;;;;;5054694;28;20112;-69
2021/06/30 04:47:51;;;;;;;14.65;3.97;;;;;;;;;;5054533;28;20056;-69
2021/06/30 04:50:17;;;;;;;14.02;3.75;;;;;;;;;;5054675;28;20044;-69
2021/06/30 04:52:43;;;;;;;27.63;4.53;;;;;;;;;;5054213;28;20017;-70
2021/06/30 04:55:09;;;;;;;22.55;4.65;;;;;;;;;;5054791;28;20416;-70
2021/06/30 04:57:36;;;;;;;28.05;4.95;;;;;;;;;;5054401;28;20021;-70
2021/06/30 05:00:06;;;;;;;22.17;5.25;;;;;;;;;;5054221;28;20025;-70
2021/06/30 05:02:32;;;;;;;24.52;4.93;;;;;;;;;;5054139;28;20025;-70
2021/06/30 05:04:58;;;;;;;27.40;4.97;;;;;;;;;;5053568;28;20489;-70
2021/06/30 05:07:24;;;;;;;22.65;4.18;;;;;;;;;;5052969;28;20107;-70
2021/06/30 05:09:50;;;;;;;20.95;4.30;;;;;;;;;;5053715;28;20040;-70
2021/06/30 05:12:17;;;;;;;19.83;4.00;;;;;;;;;;5054112;28;20024;-70
2021/06/30 05:14:43;;;;;;;18.95;3.85;;;;;;;;;;5054023;28;20057;-70
2021/06/30 05:17:09;;;;;;;12.98;3.78;;;;;;;;;;5053959;28;20017;-70
2021/06/30 05:19:35;;;;;;;16.38;3.83;;;;;;;;;;5053801;28;20492;-70
2021/06/30 05:22:01;;;;;;;10.30;3.58;;;;;;;;;;5052569;28;20359;-69
2021/06/30 05:24:27;;;;;;;12.85;3.85;;;;;;;;;;5053847;28;20469;-70
2021/06/30 05:26:53;;;;;;;17.20;4.20;;;;;;;;;;5054132;28;20027;-70
2021/06/30 05:29:19;;;;;;;16.63;3.83;;;;;;;;;;5053808;28;20489;-68
2021/06/30 05:31:45;;;;;;;17.08;3.58;;;;;;;;;;5053581;28;20025;-68
2021/06/30 05:34:11;;;;;;;18.08;3.55;;;;;;;;;;5053473;28;20071;-68
2021/06/30 05:36:37;;;;;;;21.58;4.63;;;;;;;;;;5053458;28;20024;-68
2021/06/30 05:39:03;;;;;;;14.55;3.88;;;;;;;;;;5053812;28;20025;-68
2021/06/30 05:41:29;;;;;;;14.27;3.55;;;;;;;;;;5053585;28;20109;-68
2021/06/30 05:43:56;;;;;;;16.70;3.47;;;;;;;;;;5053053;28;20501;-68
2021/06/30 05:46:22;;;;;;;70.03;5.43;;;;;;;;;;5053241;28;20404;-68
2021/06/30 05:48:48;;;;;;;19.00;3.83;;;;;;;;;;5053040;28;20032;-68
2021/06/30 05:51:14;;;;;;;17.30;3.47;;;;;;;;;;5052449;28;20033;-68
2021/06/30 05:53:40;;;;;;;14.63;2.15;;;;;;;;;;5052933;28;20473;-68
2021/06/30 05:56:06;;;;;;;7.95;2.60;;;;;;;;;;5053351;28;20100;-68
2021/06/30 05:58:32;;;;;;;11.65;2.85;;;;;;;;;;5053727;28;20446;-67
2021/06/30 06:00:59;;;;;;;5.15;2.28;;;;;;;;;;5053202;28;20021;-66
2021/06/30 06:03:25;;;;;;;14.57;2.70;;;;;;;;;;5053100;28;20037;-66
2021/06/30 06:05:51;;;;;;;12.30;2.83;;;;;;;;;;5053193;28;20437;-67
2021/06/30 06:08:17;;;;;;;13.95;2.40;;;;;;;;;;5052730;28;20037;-67
2021/06/30 06:10:43;;;;;;;7.80;2.70;;;;;;;;;;5052924;28;20048;-67
2021/06/30 06:13:09;;;;;;;11.23;3.20;;;;;;;;;;5052804;28;20025;-67
2021/06/30 06:15:35;;;;;;;11.43;2.25;;;;;;;;;;5052885;28;20036;-68
2021/06/30 06:18:01;;;;;;;12.45;2.60;;;;;;;;;;5052960;28;20047;-68
2021/06/30 06:20:28;;;;;;;18.75;3.00;;;;;;;;;;5052959;28;20036;-69
2021/06/30 06:22:55;;;;;;;6.75;2.30;;;;;;;;;;5052737;28;20104;-67
2021/06/30 06:25:21;;;;;;;8.60;2.55;;;;;;;;;;5051359;28;20032;-68
2021/06/30 06:27:47;;;;;;;46.95;4.43;;;;;;;;;;5052852;28;20025;-68
2021/06/30 06:30:13;;;;;;;25.10;3.03;;;;;;;;;;5052291;28;20393;-69
2021/06/30 06:32:39;;;;;;;23.20;3.03;;;;;;;;;;5051980;28;20025;-66
2021/06/30 06:35:06;;;;;;;14.73;2.22;;;;;;;;;;5052451;28;20481;-67
2021/06/30 06:37:32;;;;;;;6.35;2.40;;;;;;;;;;5052426;28;20151;-67
2021/06/30 06:39:58;;;;;;;7.60;2.45;;;;;;;;;;5051315;28;20037;-67
2021/06/30 06:42:25;;;;;;;9.90;2.17;;;;;;;;;;5067192;22;20047;-72
2021/06/30 06:44:51;;;;;;;15.40;3.13;;;;;;;;;;5072097;28;20127;-73
2021/06/30 06:47:17;;;;;;;5.75;1.73;;;;;;;;;;5072758;28;20021;-73
2021/06/30 06:49:43;;;;;;;9.40;2.25;;;;;;;;;;5072863;28;20029;-73
2021/06/30 06:52:09;;;;;;;9.00;2.15;;;;;;;;;;5072122;28;20103;-72
2021/06/30 06:54:35;;;;;;;10.45;2.25;;;;;;;;;;5092599;28;20438;-73
2021/06/30 06:57:01;;;;;;;5.55;1.90;;;;;;;;;;5092944;28;20099;-72
2021/06/30 06:59:27;;;;;;;5.57;1.90;;;;;;;;;;5092762;28;20070;-73
2021/06/30 07:01:53;;;;;;;11.35;1.90;;;;;;;;;;5092557;28;20070;-73
2021/06/30 07:04:19;;;;;;;2.47;1.45;;;;;;;;;;5093734;28;20111;-72
2021/06/30 07:06:45;;;;;;;7.47;1.52;;;;;;;;;;5095503;28;20028;-74
2021/06/30 07:09:11;;;;;;;8.63;2.17;;;;;;;;;;5096383;28;20379;-73
2021/06/30 07:11:37;;;;;;;7.65;1.98;;;;;;;;;;5096408;28;20028;-72
2021/06/30 07:14:03;;;;;;;10.75;1.60;;;;;;;;;;5096699;28;20024;-77
2021/06/30 07:16:29;;;;;;;8.95;1.60;;;;;;;;;;5096585;28;20106;-75
2021/06/30 07:18:55;;;;;;;9.90;1.45;;;;;;;;;;5096613;28;20047;-73
2021/06/30 07:21:21;;;;;;;9.73;1.38;;;;;;;;;;5096317;28;20480;-73
2021/06/30 07:23:47;;;;;;;5.22;1.73;;;;;;;;;;5096325;28;20380;-74
2021/06/30 07:26:14;;;;;;;7.18;1.73;;;;;;;;;;5096368;28;20574;-73
2021/06/30 07:28:40;;;;;;;6.13;1.48;;;;;;;;;;5096299;28;20028;-74
2021/06/30 07:31:07;;;;;;;7.00;1.55;;;;;;;;;;5096470;28;20475;-77
2021/06/30 07:33:33;;;;;;;8.45;1.50;;;;;;;;;;5096485;28;20358;-77
2021/06/30 07:35:59;;;;;;;9.50;1.92;;;;;;;;;;5096055;28;20093;-77
2021/06/30 07:38:26;;;;;;;5.05;1.75;;;;;;;;;;5096084;28;20016;-73
2021/06/30 07:40:52;;;;;;;5.03;1.20;;;;;;;;;;5095848;28;20525;-77
2021/06/30 07:43:18;;;;;;;3.65;1.52;;;;;;;;;;5095972;28;20072;-76
2021/06/30 07:45:44;;;;;;;5.97;1.30;;;;;;;;;;5096250;28;20403;-76
2021/06/30 07:48:10;;;;;;;7.30;1.55;;;;;;;;;;5096085;28;20430;-75
2021/06/30 07:50:36;;;;;;;7.28;1.35;;;;;;;;;;5095793;28;20064;-74
2021/06/30 07:53:03;;;;;;;8.23;1.60;;;;;;;;;;5095753;28;20028;-75
2021/06/30 07:55:29;;;;;;;9.82;1.20;;;;;;;;;;5095848;28;20105;-73
2021/06/30 07:57:55;;;;;;;5.80;1.35;;;;;;;;;;5096182;28;20168;-74
2021/06/30 08:00:21;;;;;;;4.95;1.13;;;;;;;;;;5095675;28;20073;-74
2021/06/30 08:02:47;;;;;;;2.55;1.20;;;;;;;;;;5095725;28;20024;-73
2021/06/30 08:05:13;;;;;;;4.43;1.20;;;;;;;;;;5095703;28;20549;-74
2021/06/30 08:07:39;;;;;;;2.15;1.05;;;;;;;;;;5095488;28;20107;-74
2021/06/30 08:10:07;;;;;;;3.53;1.25;;;;;;;;;;5095591;28;20038;-73
2021/06/30 08:12:33;;;;;;;3.83;1.40;;;;;;;;;;5095242;28;20052;-73
2021/06/30 08:14:59;;;;;;;3.63;1.23;;;;;;;;;;5094606;28;20472;-73
2021/06/30 08:17:26;;;;;;;9.02;1.27;;;;;;;;;;5095226;28;20016;-72
2021/06/30 08:19:52;;;;;;;7.13;1.38;;;;;;;;;;5095416;28;20426;-73
2021/06/30 08:22:18;;;;;;;9.05;1.40;;;;;;;;;;5095390;28;20499;-72
2021/06/30 08:24:44;;;;;;;6.00;1.17;;;;;;;;;;5094687;28;20024;-70
2021/06/30 08:27:12;;;;;;;7.32;1.45;;;;;;;;;;5095107;28;20035;-70
2021/06/30 08:29:38;;;;;;;5.13;1.20;;;;;;;;;;5095412;28;20036;-71
2021/06/30 08:32:05;;;;;;;2.70;1.00;;;;;;;;;;5095186;28;20024;-69
2021/06/30 08:34:31;;;;;;;6.50;1.15;;;;;;;;;;5094812;28;20031;-70
2021/06/30 08:37:05;;;;;;;4.40;1.20;;;;;;;;;;5094950;28;20107;-71
2021/06/30 08:39:31;;;;;;;4.00;1.10;;;;;;;;;;5095253;28;20024;-70
2021/06/30 08:41:57;;;;;;;5.55;1.48;;;;;;;;;;5095075;28;20096;-70
2021/06/30 08:44:23;;;;;;;5.93;1.83;;;;;;;;;;5094293;28;20074;-70
2021/06/30 08:46:49;;;;;;;9.38;1.45;;;;;;;;;;5094869;28;20027;-70
2021/06/30 08:49:22;;;;;;;11.68;1.52;;;;;;;;;;5087946;28;20032;-72
2021/06/30 08:51:51;;;;;;;4.95;1.80;;;;;;;;;;5078979;28;20039;-71
2021/06/30 08:54:18;;;;;;;8.23;1.83;;;;;;;;;;5074431;28;20029;-71
2021/06/30 08:56:43;;;;;;;9.15;1.50;;;25.90;58.40;;;;;;5074254;28;20035;-71
2021/06/30 08:59:09;;;;;;;6.20;1.20;;;28.10;43.00;;;;;;5074518;28;20021;-70
2021/06/30 09:01:35;;;;;;;7.13;1.20;;;28.10;43.20;;;;;;5074373;28;20017;-72
2021/06/30 09:04:01;;;;;;;6.40;1.20;;;28.20;43.40;;;;;;5074193;28;20025;-71
2021/06/30 09:06:28;;;;;;;6.22;1.45;;;28.20;44.50;;;;;;5074001;28;20476;-72
2021/06/30 09:08:57;;;;;;;4.97;0.95;;;28.30;42.40;;;;;;5074144;28;20078;-71
2021/06/30 09:11:26;;;;;;;8.45;1.20;;;28.30;42.70;;;;;;5074125;28;20443;-72
2021/06/30 09:14:23;;;;;;;8.60;1.42;;;28.40;42.50;;;;;;5073965;28;20533;-71
2021/06/30 09:16:59;;;;;;;5.07;1.00;;;28.50;42.40;;;;;;5073946;28;20086;-72
2021/06/30 09:20:05;;;;;;;5.78;1.13;;;28.60;42.40;;;;;;5072893;28;20401;-72
2021/06/30 09:22:43;;;;;;;3.05;1.10;;;28.60;43.20;;;;;;5074222;28;20052;-71
2021/06/30 09:25:08;;;;;;;4.40;1.10;;;28.70;39.00;;;;;;5073693;28;20037;-71
2021/06/30 09:27:43;;;;;;;6.30;1.08;;;28.70;38.50;;;;;;5073103;28;20016;-70
2021/06/30 09:30:11;;;;;;;6.15;1.00;;;28.70;39.40;;;;;;5073533;28;20035;-72
2021/06/30 09:32:51;;;;;;;6.22;1.50;;;28.80;39.80;;;;;;5073730;28;20074;-71
2021/06/30 09:35:22;;;;;;;6.50;1.17;;;28.80;41.10;;;;;;5073582;28;20156;-72
2021/06/30 09:37:49;;;;;;;6.13;1.23;;;28.90;41.90;;;;;;5073788;28;20021;-72
2021/06/30 09:40:16;;;;;;;5.78;1.65;;;28.90;42.20;;;;;;5073733;28;20103;-73
2021/06/30 09:42:42;;;;;;;12.30;1.30;;;29.00;39.60;;;;;;5073189;28;20033;-72
2021/06/30 09:45:18;;;;;;;8.60;1.10;;;29.00;40.10;;;;;;5073210;28;20071;-72
2021/06/30 09:47:46;;;;;;;4.35;1.15;;;29.00;40.30;;;;;;5073331;28;20024;-71
2021/06/30 09:50:12;;;;;;;6.80;1.30;;;29.10;38.60;;;;;;5073382;28;20461;-71
2021/06/30 09:52:40;;;;;;;10.13;1.13;;;29.10;38.80;;;;;;5072376;28;20048;-70
2021/06/30 09:55:22;;;;;;;3.00;0.90;;;29.10;39.10;;;;;;5071804;28;20032;-72
2021/06/30 09:57:48;;;;;;;4.35;1.30;;;29.10;39.80;;;;;;5072821;28;20100;-70
2021/06/30 10:00:14;;;;;;;7.13;1.20;;;29.10;40.80;;;;;;5072877;28;20032;-71
2021/06/30 10:02:40;;;;;;;5.95;1.00;;;29.20;39.90;;;;;;5069626;28;20048;-69
2021/06/30 10:05:08;;;;;;;6.93;1.25;;;29.30;40.90;;;;;;5069855;28;20055;-70
2021/06/30 10:07:34;;;;;;;8.88;1.30;;;;;;;;;;5070985;28;20384;-69
2021/06/30 10:10:00;;;;;;;4.35;1.27;;;;;;;;;;5072671;28;20101;-71
2021/06/30 10:12:31;;;;;;;7.50;1.27;;;;;;;;;;5073215;28;20024;-71
2021/06/30 10:14:57;;;;;;;4.03;1.40;;;;;;;;;;5073098;28;20078;-70
2021/06/30 10:17:24;;;;;;;4.50;1.30;;;;;;;;;;5072964;28;20057;-70
2021/06/30 10:19:52;;;;;;;3.22;1.45;;;;;;;;;;5072899;28;20472;-69
2021/06/30 10:22:18;;;;;;;4.43;1.13;;;;;;;;;;5073044;28;20081;-71
2021/06/30 10:24:44;;;;;;;4.70;1.40;;;;;;;;;;5072620;28;20017;-71
2021/06/30 10:27:12;;;;;;;3.67;0.82;;;;;;;;;;5072928;28;20062;-70
2021/06/30 10:29:39;;;;;;;3.22;0.90;;;;;;;;;;5072738;28;20107;-70
2021/06/30 10:32:07;;;;;;;8.32;1.15;;;;;;;;;;5072692;28;20040;-70
2021/06/30 10:34:35;;;;;;;5.47;1.20;;;;;;;;;;5072005;28;20401;-70
2021/06/30 10:37:01;;;;;;;6.03;1.23;;;;;;;;;;5070488;28;20064;-70
2021/06/30 10:39:36;;;;;;;5.07;1.10;;;;;;;;;;5073823;28;20017;-71
2021/06/30 10:42:14;;;;;;;8.35;1.00;;;;;;;;;;5077017;28;20025;-71
2021/06/30 10:44:47;;;;;;;4.43;1.15;;;;;;;;;;5076877;28;20055;-70
2021/06/30 10:47:28;;;;;;;12.32;2.28;;;;;;;;;;5076990;28;20016;-71
2021/06/30 10:50:15;;;;;;;3.43;1.10;;;;;;;;;;5076934;28;20028;-71
2021/06/30 10:52:41;;;;;;;7.15;1.15;;;;;;;;;;5069380;28;20121;-71
2021/06/30 10:55:07;;;;;;;3.47;1.17;;;;;;;;;;5077273;28;20486;-71
2021/06/30 10:57:33;;;;;;;4.88;1.25;;;;;;;;;;5076645;28;20024;-71
2021/06/30 11:00:02;;;;;;;7.43;1.30;;;;;;;;;;5077066;28;20376;-72
2021/06/30 11:02:31;;;;;;;6.43;1.13;;;;;;;;;;5076706;28;20033;-71
2021/06/30 11:04:58;;;;;;;3.67;1.10;;;;;;;;;;5076445;28;20489;-70
2021/06/30 11:07:36;;;;;;;7.50;1.00;;;;;;;;;;5076302;28;20365;-71
2021/06/30 11:10:22;;;;;;;6.15;1.00;;;;;;;;;;5076293;28;20039;-71
2021/06/30 11:12:52;;;;;;;3.42;0.90;;;;;;;;;;5069045;28;20123;-71
2021/06/30 11:15:36;;;;;;;6.68;1.13;;;;;;;;;;5075339;28;20469;-71
2021/06/30 11:18:25;;;;;;;5.55;1.00;;;;;;;;;;5074801;28;20107;-72
2021/06/30 11:21:00;;;;;;;5.65;1.45;;;;;;;;;;5075269;28;20035;-71
2021/06/30 11:23:27;;;;;;;3.80;0.90;;;;;;;;;;5075940;28;20385;-71
2021/06/30 11:25:54;;;;;;;12.52;1.13;;;;;;;;;;5075664;28;20025;-71
2021/06/30 11:28:36;;;;;;;5.90;1.30;;;;;;;;;;5076045;28;20036;-71
2021/06/30 11:31:28;;;;;;;4.45;1.10;;;;;;;;;;5075785;28;20040;-70
2021/06/30 11:34:03;;;;;;;7.13;1.13;;;;;;;;;;5059919;28;20473;-70
2021/06/30 11:36:29;;;;;;;7.25;1.25;;;;;;;;;;5075954;28;20036;-71
2021/06/30 11:38:55;;;;;;;6.95;1.33;;;;;;;;;;5075831;28;20028;-71
2021/06/30 11:41:25;;;;;;;5.53;1.10;;;;;;;;;;5076059;28;20052;-71
2021/06/30 11:43:54;;;;;;;7.80;1.33;;;;;;;;;;5075196;28;20520;-70
2021/06/30 11:46:23;;;;;;;2.63;0.90;;;;;;;;;;5075794;28;20043;-71
2021/06/30 11:48:52;;;;;;;3.72;1.27;;;;;;;;;;5075826;28;20461;-71
2021/06/30 11:51:19;;;;;;;5.75;1.00;;;;;;;;;;5074695;28;20051;-70
2021/06/30 11:53:49;;;;;;;6.60;1.17;;;;;;;;;;5075634;28;20048;-70
2021/06/30 11:56:34;;;;;;;5.53;0.98;;;;;;;;;;5075808;28;20373;-71
2021/06/30 11:59:01;;;;;;;2.78;1.10;;;;;;;;;;5075726;28;20023;-71
2021/06/30 12:01:27;;;;;;;5.78;1.00;;;;;;;;;;5075582;28;20139;-71
2021/06/30 12:04:06;;;;;;;3.47;1.13;;;;;;;;;;5075282;28;20028;-71
2021/06/30 12:06:33;;;;;;;5.57;1.02;;;;;;;;;;5075347;28;20024;-71
2021/06/30 12:09:14;;;;;;;6.30;1.17;;;;;;;;;;5075241;28;20082;-70
2021/06/30 12:11:42;;;;;;;4.18;0.98;;;;;;;;;;5075346;28;20394;-70
2021/06/30 12:14:08;;;;;;;6.20;1.20;;;;;;;;;;5075227;28;20028;-70
2021/06/30 12:16:51;;;;;;;4.25;1.08;;;;;;;;;;5075267;28;20492;-70
2021/06/30 12:19:22;;;;;;;5.28;0.98;;;;;;;;;;5075341;28;20056;-71
2021/06/30 12:21:49;;;;;;;3.83;1.33;;;;;;;;;;5074967;28;20035;-70
2021/06/30 12:24:22;;;;;;;6.32;0.93;;;;;;;;;;5074889;28;20024;-71
2021/06/30 12:27:06;;;;;;;3.65;1.02;;;;;;;;;;5074945;28;20028;-72
2021/06/30 12:29:33;;;;;;;4.78;0.82;;;;;;;;;;5075095;28;20024;-72
2021/06/30 12:32:00;;;;;;;4.93;1.20;;;;;;;;;;5074361;28;20047;-71
2021/06/30 12:34:26;;;;;;;6.82;1.40;;;;;;;;;;5074415;28;20467;-71
2021/06/30 12:36:52;;;;;;;5.40;1.20;;;;;;;;;;5074752;28;20473;-72
2021/06/30 12:39:21;;;;;;;7.68;1.25;;;;;;;;;;5074763;28;20059;-72
2021/06/30 12:41:57;;;;;;;5.97;1.25;;;;;;;;;;5074588;28;20033;-73
2021/06/30 12:44:23;;;;;;;6.70;1.23;;;;;;;;;;5074040;28;20036;-73
2021/06/30 12:47:05;;;;;;;14.15;1.77;;;;;;;;;;5074441;28;20024;-73
2021/06/30 12:49:31;;;;;;;4.40;1.13;;;;;;;;;;5074231;28;20017;-72
2021/06/30 12:51:57;;;;;;;6.25;1.33;;;;;;;;;;5074136;28;20396;-73
2021/06/30 12:54:23;;;;;;;9.57;1.30;;;;;;;;;;5074201;28;20044;-73
2021/06/30 12:56:59;;;;;;;4.05;1.10;;;;;;;;;;5074188;28;20098;-71
2021/06/30 12:59:26;;;;;;;12.95;1.20;;;;;;;;;;5074232;28;20477;-73
2021/06/30 13:01:52;;;;;;;5.00;1.42;;;;;;;;;;5074208;28;20107;-72
2021/06/30 13:04:28;;;;;;;5.13;1.20;;;;;;;;;;5074072;28;20029;-72
2021/06/30 13:06:54;;;;;;;6.75;1.73;;;;;;;;;;5073903;28;20029;-73
2021/06/30 13:09:25;;;;;;;7.47;1.98;;;;;;;;;;5073913;28;20036;-72
2021/06/30 13:11:57;;;;;;;6.50;2.00;;;;;;;;;;5073913;28;20036;-70
2021/06/30 13:14:48;;;;;;;9.98;2.00;;;;;;;;;;5073501;28;20032;-72
2021/06/30 13:17:14;;;;;;;9.85;1.70;;;;;;;;;;5073374;28;20099;-72
2021/06/30 13:19:43;;;;;;;6.22;2.00;;;;;;;;;;5072760;28;20028;-72
2021/06/30 13:22:17;;;;;;;13.25;1.90;;;;;;;;;;5073383;28;20070;-70
2021/06/30 13:24:47;;;;;;;9.45;1.80;;;;;;;;;;5072319;28;20024;-72
2021/06/30 13:35:17;;;;;;;6.72;1.73;;;;;;;;;;5093390;28;20164;-72
2021/06/30 13:37:44;;;;;;;6.50;1.83;;;;;;;;;;5093424;28;20028;-71
2021/06/30 13:40:10;;;;;;;7.80;1.80;;;;;;;;;;5091849;28;20434;-70
2021/06/30 13:42:36;;;;;;;12.82;1.77;;;;;;;;;;5092938;28;20020;-71
2021/06/30 13:45:03;;;;;;;7.13;1.52;;;;;;;;;;5093040;28;20396;-71
2021/06/30 13:47:29;;;;;;;9.15;1.67;;;;;;;;;;5093192;28;20099;-72
2021/06/30 13:49:55;;;;;;;13.73;1.92;;;;;;;;;;5093266;28;20042;-71
2021/06/30 13:52:21;;;;;;;7.60;1.40;;;;;;;;;;5092824;28;20028;-70
2021/06/30 13:54:47;;;;;;;7.68;1.35;;;;;;;;;;5093149;28;20024;-70
2021/06/30 13:57:13;;;;;;;8.02;1.60;;;;;;;;;;5093230;28;20416;-70
2021/06/30 13:59:39;;;;;;;8.32;1.60;;;;;;;;;;5092961;28;20024;-72
2021/06/30 14:02:05;;;;;;;8.07;1.60;;;;;;;;;;5092878;28;20389;-71
2021/06/30 14:04:31;;;;;;;5.75;1.40;;;;;;;;;;5093201;28;20028;-71
2021/06/30 14:06:57;;;;;;;14.18;2.45;;;;;;;;;;5092971;28;20020;-71
2021/06/30 14:09:23;;;;;;;11.27;1.73;;;;;;;;;;5092633;28;20038;-67
2021/06/30 14:11:49;;;;;;;11.18;1.92;;;;;;;;;;5092912;28;20024;-71
2021/06/30 14:14:15;;;;;;;12.25;1.70;;;;;;;;;;5092468;28;20024;-69
2021/06/30 14:16:41;;;;;;;8.73;2.00;;;;;;;;;;5092730;28;20387;-70
2021/06/30 14:19:07;;;;;;;13.50;2.97;;;;;;;;;;5092658;28;20024;-70
2021/06/30 14:21:33;;;;;;;11.38;2.22;;;;;;;;;;5092713;28;20076;-69
2021/06/30 14:23:59;;;;;;;11.15;2.72;;;;;;;;;;5092755;28;20506;-70
2021/06/30 14:26:25;;;;;;;30.08;4.13;;;;;;;;;;5093006;28;20533;-70
2021/06/30 14:28:52;;;;;;;9.05;2.00;;;;;;;;;;5092843;28;20036;-71
2021/06/30 14:31:18;;;;;;;11.10;2.13;;;;;;;;;;5093085;28;20088;-71
2021/06/30 14:33:45;;;;;;;13.05;2.22;;;;;;;;;;5092733;28;20456;-72
2021/06/30 14:36:12;;;;;;;12.32;8.55;;;;;;;;;;5079187;28;20021;-71